Time;durP1;ratioP1;P1;durP2;ratioP2;P2;SDS_P1;SDS_P2;PMS_P1;PMS_P2;Temp;Humidity;BMP_temperature;BMP_pressure;BME280_temperature;BME280_humidity;BME280_pressure;Samples;Min_cycle;Max_cycle;Signal;HPM_P1;HPM_P2
2023/05/27 00:01:01;;;;;;;8.23;4.03;;;;;;;20.45;73.66;98817.84;5095563;28;20177;-85
2023/05/27 00:03:27;;;;;;;7.83;3.73;;;;;;;20.47;73.69;98815.88;5094597;28;20172;-87
2023/05/27 00:05:52;;;;;;;7.03;3.77;;;;;;;20.33;74.20;98814.56;5094650;28;20219;-86
2023/05/27 00:08:18;;;;;;;5.27;3.30;;;;;;;20.30;74.64;98816.69;5095818;28;20506;-85
2023/05/27 00:10:44;;;;;;;6.40;3.67;;;;;;;20.19;75.03;98815.88;5095381;28;20184;-86
2023/05/27 00:13:10;;;;;;;5.70;3.53;;;;;;;20.02;75.52;98807.88;5095705;28;20449;-86
2023/05/27 00:15:38;;;;;;;5.97;3.17;;;;;;;19.99;75.55;98810.81;5094345;28;20571;-86
2023/05/27 00:18:04;;;;;;;12.40;3.57;;;;;;;20.00;75.48;98813.31;5095886;28;20264;-85
2023/05/27 00:20:30;;;;;;;8.20;3.33;;;;;;;20.13;74.75;98810.31;5100605;28;20187;-86
2023/05/27 00:22:56;;;;;;;9.33;3.50;;;;;;;20.03;74.92;98805.03;5114499;28;20638;-86
2023/05/27 00:25:22;;;;;;;9.17;3.10;;;;;;;19.99;74.46;98811.66;5114980;28;20243;-85
2023/05/27 00:27:48;;;;;;;4.73;3.03;;;;;;;20.00;74.59;98807.16;5115540;28;20168;-85
2023/05/27 00:30:15;;;;;;;5.73;3.67;;;;;;;20.00;74.03;98802.69;5115494;28;20189;-86
2023/05/27 00:32:41;;;;;;;3.50;2.40;;;;;;;20.13;73.54;98803.16;5116004;28;20182;-85
2023/05/27 00:35:07;;;;;;;5.67;3.13;;;;;;;20.14;73.15;98799.53;5115296;28;20200;-85
2023/05/27 00:37:32;;;;;;;5.57;3.23;;;;;;;20.14;73.54;98796.88;5115525;28;20670;-86
2023/05/27 00:39:58;;;;;;;5.87;2.57;;;;;;;20.16;72.69;98797.53;5114166;28;20171;-86
2023/05/27 00:42:23;;;;;;;6.20;3.00;;;;;;;20.06;72.96;98796.78;5115210;28;20554;-86
2023/05/27 00:44:49;;;;;;;7.83;2.77;;;;;;;19.96;73.21;98790.66;5114980;28;20179;-87
2023/05/27 00:47:18;;;;;;;5.63;2.70;;;;;;;19.89;73.31;98794.88;5114756;28;20588;-86
2023/05/27 00:49:45;;;;;;;4.17;2.47;;;;;;;19.87;73.72;98796.84;5115027;27;20534;-86
2023/05/27 00:55:32;;;;;;;7.40;2.67;;;;;;;19.94;72.83;98791.81;5115840;28;20262;-86
2023/05/27 00:57:59;;;;;;;6.60;3.30;;;;;;;19.92;72.96;98788.44;5114280;28;20176;-85
2023/05/27 01:00:24;;;;;;;9.93;3.03;;;;;;;19.92;72.88;98793.75;5115144;28;20252;-86
2023/05/27 01:02:50;;;;;;;5.63;2.67;;;;;;;19.88;72.92;98789.72;5114115;28;20624;-85
2023/05/27 01:05:18;;;;;;;5.50;3.47;;;;;;;19.89;72.64;98794.06;5114712;27;20220;-86
2023/05/27 01:07:58;;;;;;;4.93;2.73;;;;;;;19.98;72.66;98785.19;5115594;28;20176;-85
2023/05/27 01:10:35;;;;;;;6.13;3.10;;;;;;;20.01;72.50;98785.72;5114404;28;20175;-86
2023/05/27 01:13:10;;;;;;;7.60;3.10;;;;;;;20.07;71.91;98789.63;5113792;28;20194;-86
2023/05/27 01:15:36;;;;;;;8.93;3.70;;;;;;;20.13;71.63;98784.53;5114592;28;20240;-86
2023/05/27 01:18:03;;;;;;;6.23;2.83;;;;;;;20.12;71.38;98782.88;5113605;28;20527;-86
2023/05/27 01:20:30;;;;;;;4.83;2.73;;;;;;;20.07;71.67;98789.63;5112028;28;20569;-86
2023/05/27 01:22:59;;;;;;;11.43;3.20;;;;;;;20.08;71.68;98788.63;5093017;28;20529;-86
2023/05/27 01:25:24;;;;;;;5.57;3.23;;;;;;;20.07;71.50;98787.78;5094090;28;20159;-86
2023/05/27 01:27:52;;;;;;;6.70;3.10;;;;;;;20.04;71.38;98780.13;5094169;28;20179;-86
2023/05/27 01:30:19;;;;;;;7.53;3.00;;;;;;;20.02;71.52;98782.06;5093401;28;20176;-86
2023/05/27 01:33:06;;;;;;;5.13;2.47;;;;;;;20.01;70.88;98785.72;5093801;28;20627;-86
2023/05/27 01:35:44;;;;;;;4.90;2.60;;;;;;;19.91;71.46;98792.94;5094720;28;20630;-86
2023/05/27 01:38:16;;;;;;;12.30;3.37;;;;;;;19.97;70.92;98787.00;5093847;28;20168;-85
2023/05/27 01:40:42;;;;;;;5.50;3.00;;;;;;;20.02;70.74;98787.38;5110932;28;20215;-86
2023/05/27 01:43:08;;;;;;;4.43;2.90;;;;;;;20.10;70.25;98791.97;5112696;28;20172;-86
2023/05/27 01:45:34;;;;;;;11.10;3.17;;;;;;;20.13;69.69;98792.53;5113165;28;20262;-86
2023/05/27 01:48:00;;;;;;;5.30;3.10;;;;;;;20.12;69.92;98798.84;5105336;28;20178;-86
2023/05/27 01:50:26;;;;;;;5.97;3.17;;;;;;;20.03;69.93;98791.75;5093638;28;20182;-86
2023/05/27 01:52:51;;;;;;;5.93;3.37;;;;;;;20.02;69.71;98789.25;5092634;28;20672;-86
2023/05/27 01:55:17;;;;;;;8.97;3.30;;;;;;;20.07;69.71;98798.44;5093450;28;20191;-86
2023/05/27 01:57:43;;;;;;;5.63;3.10;;;;;;;20.08;69.66;98794.78;5092636;28;20179;-86
2023/05/27 02:00:09;;;;;;;6.70;3.10;;;;;;;20.02;69.38;98792.72;5092526;28;20186;-87
2023/05/27 02:02:35;;;;;;;8.30;3.77;;;;;;;19.97;69.56;98802.97;5108923;28;20213;-86
2023/05/27 02:05:00;;;;;;;4.30;2.50;;;;;;;19.99;69.63;98806.34;5113957;28;20210;-86
2023/05/27 02:07:26;;;;;;;5.10;3.03;;;;;;;19.88;69.96;98806.53;5113396;28;20718;-86
2023/05/27 02:09:52;;;;;;;8.17;3.23;;;;;;;19.93;69.94;98808.72;5112807;28;20236;-86
2023/05/27 02:12:17;;;;;;;10.20;3.03;;;;;;;20.03;69.21;98804.19;5113732;28;20654;-86
2023/05/27 02:14:44;;;;;;;6.90;3.07;;;;;;;20.03;69.20;98810.38;5113231;28;20198;-86
2023/05/27 02:17:10;;;;;;;8.03;3.40;;;;;;;20.03;69.15;98805.03;5113955;28;20172;-86
2023/05/27 02:19:36;;;;;;;5.70;3.10;;;;;;;19.96;69.19;98806.63;5113604;28;20178;-86
2023/05/27 02:22:01;;;;;;;5.33;3.03;;;;;;;19.93;69.25;98808.72;5109872;28;20171;-86
2023/05/27 02:24:26;;;;;;;5.87;3.10;;;;;;;19.90;69.34;98807.22;5093111;28;20197;-86
2023/05/27 02:26:52;;;;;;;7.80;3.33;;;;;;;19.87;69.91;98802.19;5092255;28;20172;-86
2023/05/27 02:29:17;;;;;;;5.03;3.00;;;;;;;19.89;69.60;98799.38;5092544;28;20267;-86
2023/05/27 02:31:43;;;;;;;5.60;3.27;;;;;;;19.79;69.61;98806.53;5093202;28;20172;-86
2023/05/27 02:34:08;;;;;;;8.53;3.17;;;;;;;19.75;69.85;98805.19;5091986;28;20549;-86
2023/05/27 02:36:34;;;;;;;8.77;3.63;;;;;;;19.74;69.63;98807.00;5093389;28;20195;-86
2023/05/27 02:39:00;;;;;;;4.47;2.57;;;;;;;19.76;69.62;98806.88;5092707;28;20219;-86
2023/05/27 02:41:26;;;;;;;4.97;2.70;;;;;;;19.67;69.72;98805.91;5092136;28;20176;-86
2023/05/27 02:43:52;;;;;;;5.53;2.93;;;;;;;19.75;69.20;98799.84;5093279;28;20239;-87
2023/05/27 02:46:17;;;;;;;7.87;3.13;;;;;;;19.72;69.02;98801.00;5092717;28;20247;-87
2023/05/27 02:48:42;;;;;;;5.53;3.17;;;;;;;19.73;69.21;98799.19;5092645;28;20517;-87
2023/05/27 02:51:08;;;;;;;5.33;2.80;;;;;;;19.74;69.47;98801.69;5093290;28;20250;-86
2023/05/27 02:53:33;;;;;;;4.43;2.57;;;;;;;19.84;69.13;98797.16;5092910;28;20549;-86
2023/05/27 02:55:59;;;;;;;9.10;2.67;;;;;;;19.88;68.99;98792.38;5092880;28;20520;-86
2023/05/27 02:58:24;;;;;;;8.03;3.00;;;;;;;19.96;68.46;98789.81;5108155;28;20183;-86
2023/05/27 03:00:49;;;;;;;5.43;2.70;;;;;;;19.92;69.02;98793.75;5116553;28;20198;-86
2023/05/27 03:03:15;;;;;;;5.07;3.10;;;;;;;19.89;68.81;98799.38;5116166;28;20186;-86
2023/05/27 03:05:40;;;;;;;10.10;3.20;;;;;;;19.91;68.88;98789.44;5116187;27;20268;-85
2023/05/27 03:08:06;;;;;;;5.57;3.00;;;;;;;19.84;68.83;98796.31;5116445;28;20533;-86
2023/05/27 03:10:32;;;;;;;6.87;3.57;;;;;;;19.84;69.03;98797.16;5117064;28;20201;-87
2023/05/27 03:12:58;;;;;;;5.27;2.97;;;;;;;19.91;68.77;98792.94;5117289;28;20246;-86
2023/05/27 03:15:23;;;;;;;8.33;5.20;;;;;;;19.90;68.94;98801.88;5116929;28;20681;-87
2023/05/27 03:17:49;;;;;;;12.30;6.70;;;;;;;19.83;68.65;98795.50;5096569;28;20644;-87
2023/05/27 03:20:16;;;;;;;7.23;4.20;;;;;;;19.85;69.12;98801.50;5096380;28;20186;-86
2023/05/27 03:22:42;;;;;;;5.30;3.13;;;;;;;19.71;69.30;98809.09;5096731;28;20178;-87
2023/05/27 03:25:08;;;;;;;6.33;2.50;;;;;;;19.71;69.43;98809.94;5095840;28;20217;-87
2023/05/27 03:27:34;;;;;;;4.03;2.40;;;;;;;19.82;69.27;98806.25;5095403;28;20189;-86
2023/05/27 03:29:59;;;;;;;6.87;3.07;;;;;;;19.88;69.44;98808.34;5096558;28;20617;-86
2023/05/27 03:32:25;;;;;;;4.90;3.10;;;;;;;19.92;69.21;98810.56;5096239;28;20568;-86
2023/05/27 03:34:50;;;;;;;3.30;2.07;;;;;;;19.99;68.93;98809.00;5096441;28;20561;-86
2023/05/27 03:37:16;;;;;;;6.40;2.57;;;;;;;20.10;68.75;98802.59;5096447;28;20179;-87
2023/05/27 03:39:41;;;;;;;3.10;2.03;;;;;;;20.10;67.85;98808.78;5095363;28;20176;-86
2023/05/27 03:42:07;;;;;;;6.97;2.70;;;;;;;20.16;68.58;98807.34;5102780;28;20179;-86
2023/05/27 03:44:32;;;;;;;6.60;2.73;;;;;;;20.20;68.43;98816.72;5115773;28;20176;-87
2023/05/27 03:47:02;;;;;;;4.77;2.80;;;;;;;20.19;67.83;98823.88;5115626;28;20174;-87
2023/05/27 03:49:27;;;;;;;8.20;2.97;;;;;;;20.12;67.98;98820.13;5116194;28;20244;-86
2023/05/27 03:51:52;;;;;;;4.90;2.50;;;;;;;20.16;68.28;98824.16;5115161;28;20583;-87
2023/05/27 03:54:18;;;;;;;4.63;2.63;;;;;;;20.22;68.42;98828.06;5116140;28;20592;-86
2023/05/27 03:56:43;;;;;;;4.20;2.67;;;;;;;20.20;68.13;98828.19;5115232;28;20660;-86
2023/05/27 03:59:09;;;;;;;5.70;3.00;;;;;;;20.27;68.33;98822.31;5115499;28;20621;-86
2023/05/27 04:01:35;;;;;;;6.80;2.50;;;;;;;20.30;67.57;98822.84;5115604;28;20168;-86
2023/05/27 04:04:01;;;;;;;5.20;2.53;;;;;;;20.36;67.65;98834.75;5106246;28;20577;-86
2023/05/27 04:06:26;;;;;;;7.83;2.20;;;;;;;20.23;67.73;98835.91;5094557;28;20176;-86
2023/05/27 04:08:52;;;;;;;7.97;2.83;;;;;;;20.22;68.49;98838.69;5095804;28;20191;-86
2023/05/27 04:11:17;;;;;;;5.70;2.13;;;;;;;20.17;68.80;98836.50;5095019;28;20168;-86
2023/05/27 04:13:43;;;;;;;3.33;2.50;;;;;;;20.20;69.06;98838.81;5094400;28;20373;-86
2023/05/27 04:16:10;;;;;;;4.80;2.53;;;;;;;20.31;68.37;98837.00;5094228;28;20197;-87
2023/05/27 04:18:35;;;;;;;5.70;2.80;;;;;;;20.30;68.04;98833.50;5095660;28;20172;-86
2023/05/27 04:21:01;;;;;;;4.80;2.20;;;;;;;20.30;68.10;98837.97;5094234;28;20666;-86
2023/05/27 04:23:26;;;;;;;6.23;2.77;;;;;;;20.25;68.99;98835.78;5095350;28;20184;-86
2023/05/27 04:25:52;;;;;;;5.03;2.70;;;;;;;20.27;68.47;98846.25;5098132;28;20208;-86
2023/05/27 04:28:20;;;;;;;4.70;2.80;;;;;;;20.31;68.75;98848.47;5114598;28;20182;-86
2023/05/27 04:30:47;;;;;;;5.77;2.73;;;;;;;20.42;68.97;98844.75;5115178;28;20182;-86
2023/05/27 04:33:15;;;;;;;3.90;2.50;;;;;;;20.53;69.06;98852.56;5097229;28;20172;-86
2023/05/27 04:35:43;;;;;;;6.07;2.30;;;;;;;20.58;68.47;98858.25;5094332;28;20204;-86
2023/05/27 04:38:15;;;;;;;5.33;3.10;;;;;;;20.69;67.92;98863.38;5093925;28;20176;-86
2023/05/27 04:40:44;;;;;;;11.87;2.50;;;;;;;20.66;67.84;98853.03;5095225;28;20247;-86
2023/05/27 04:43:12;;;;;;;4.53;2.67;;;;;;;20.77;68.38;98861.66;5099444;28;20187;-87
2023/05/27 04:45:38;;;;;;;3.40;2.10;;;;;;;20.74;67.69;98856.63;5114565;28;20615;-87
2023/05/27 04:48:03;;;;;;;6.10;2.43;;;;;;;20.61;68.03;98857.97;5114471;28;20263;-86
2023/05/27 04:50:29;;;;;;;9.27;2.80;;;;;;;20.67;68.40;98860.03;5115414;28;20161;-87
2023/05/27 04:52:54;;;;;;;4.13;2.70;;;;;;;20.68;68.01;98859.03;5103145;28;20185;-86
2023/05/27 04:55:20;;;;;;;3.87;2.43;;;;;;;20.74;67.67;98864.59;5093918;28;20712;-86
2023/05/27 04:57:46;;;;;;;3.57;2.23;;;;;;;20.75;67.86;98862.78;5093923;28;20621;-86
2023/05/27 05:02:39;;;;;;;4.63;2.77;;;;;;;20.79;68.19;98867.66;5109506;28;20206;-86
2023/05/27 05:05:10;;;;;;;4.17;2.33;;;;;;;20.98;67.79;98874.66;5114163;28;20175;-86
2023/05/27 05:07:40;;;;;;;6.23;2.60;;;;;;;21.06;67.86;98871.25;5106202;28;20188;-86
2023/05/27 05:10:08;;;;;;;7.53;2.80;;;;;;;21.03;66.69;98872.38;5095006;28;20290;-86
2023/05/27 05:12:34;;;;;;;5.43;2.73;;;;;;;20.97;66.60;98872.13;5097183;28;20182;-87
2023/05/27 05:14:59;;;;;;;5.57;2.43;;;;;;;21.06;67.23;98872.13;5114751;28;20199;-86
2023/05/27 05:17:25;;;;;;;5.00;2.90;;;;;;;21.15;67.31;98881.84;5113612;28;20190;-87
2023/05/27 05:19:51;;;;;;;4.57;2.37;;;;;;;21.25;67.05;98877.25;5113870;28;20179;-86
2023/05/27 05:22:22;;;;;;;3.60;2.30;;;;;;;21.30;66.75;98879.47;5114687;28;20199;-86
2023/05/27 05:24:48;;;;;;;4.57;2.37;;;;;;;21.18;65.55;98884.19;5113526;28;20187;-87
2023/05/27 05:27:13;;;;;;;5.53;2.03;;;;;;;21.14;65.99;98880.19;5114644;28;20167;-86
2023/05/27 05:29:39;;;;;;;4.57;2.40;;;;;;;21.16;66.95;98890.69;5114921;28;20193;-86
2023/05/27 05:32:05;;;;;;;7.20;2.20;;;;;;;21.26;67.25;98891.44;5113346;28;20675;-87
2023/05/27 05:34:30;;;;;;;5.27;2.60;;;;;;;21.36;67.19;98889.50;5114478;28;20634;-87
2023/05/27 05:36:56;;;;;;;5.27;2.70;;;;;;;21.47;67.43;98891.94;5102737;28;20184;-86
2023/05/27 05:39:22;;;;;;;4.07;2.33;;;;;;;21.54;67.41;98892.16;5092527;28;20275;-87
2023/05/27 05:41:48;;;;;;;3.97;2.50;;;;;;;21.58;67.08;98889.03;5107235;28;20179;-86
2023/05/27 05:44:14;;;;;;;6.70;2.73;;;;;;;21.55;65.82;98888.50;5113163;28;20163;-87
2023/05/27 05:46:39;;;;;;;3.53;2.13;;;;;;;21.62;66.64;98900.22;5113412;28;20228;-87
2023/05/27 05:49:05;;;;;;;6.93;2.37;;;;;;;21.61;66.12;98899.38;5113068;28;20183;-87
2023/05/27 05:51:31;;;;;;;5.73;2.23;;;;;;;21.59;65.48;98895.19;5113056;28;20182;-87
2023/05/27 05:53:57;;;;;;;4.93;1.97;;;;;;;21.52;66.76;98896.78;5113832;28;20192;-87
2023/05/27 05:56:23;;;;;;;5.97;2.70;;;;;;;21.51;66.83;98892.47;5113313;28;20652;-87
2023/05/27 05:58:48;;;;;;;4.77;2.13;;;;;;;21.55;67.48;98896.50;5113205;28;20262;-87
2023/05/27 06:01:15;;;;;;;7.77;2.67;;;;;;;21.64;67.65;98900.91;5114100;28;20260;-88
2023/05/27 06:03:40;;;;;;;2.93;1.83;;;;;;;21.76;67.46;98902.31;5112744;28;20183;-87
2023/05/27 06:06:06;;;;;;;5.10;2.40;;;;;;;21.80;67.99;98903.69;5113129;28;20175;-88
2023/05/27 06:08:31;;;;;;;7.20;2.90;;;;;;;21.75;67.56;98903.31;5113014;28;20179;-87
2023/05/27 06:10:57;;;;;;;5.17;2.20;;;;;;;21.78;67.22;98911.00;5107723;28;20187;-87
2023/05/27 06:13:22;;;;;;;4.90;2.60;;;;;;;21.71;66.68;98907.28;5092555;28;20265;-87
2023/05/27 06:15:48;;;;;;;5.77;2.50;;;;;;;21.74;67.65;98909.66;5093107;28;20649;-87
2023/05/27 06:18:13;;;;;;;7.00;2.77;;;;;;;21.85;68.37;98914.72;5093880;28;20583;-87
2023/05/27 06:20:39;;;;;;;5.40;2.57;;;;;;;21.91;66.71;98917.63;5093484;28;20286;-87
2023/05/27 06:23:05;;;;;;;4.13;2.07;;;;;;;21.98;66.62;98915.19;5092362;28;20267;-87
2023/05/27 06:25:30;;;;;;;3.63;2.20;;;;;;;21.98;66.92;98918.69;5093426;28;20692;-87
2023/05/27 06:27:56;;;;;;;5.67;2.47;;;;;;;22.02;66.67;98917.38;5092569;28;20726;-87
2023/05/27 06:30:21;;;;;;;4.30;2.10;;;;;;;22.13;65.84;98915.41;5094501;28;20198;-87
2023/05/27 06:32:47;;;;;;;5.63;2.30;;;;;;;22.09;66.59;98919.41;5096609;28;20543;-87
2023/05/27 06:35:12;;;;;;;5.33;2.73;;;;;;;22.18;67.21;98918.44;5096855;28;20667;-87
2023/05/27 06:37:37;;;;;;;4.07;2.43;;;;;;;22.30;66.87;98915.31;5097276;28;20506;-86
2023/05/27 06:40:04;;;;;;;4.40;2.63;;;;;;;22.43;66.52;98920.25;5097380;28;20271;-87
2023/05/27 06:42:29;;;;;;;4.77;2.90;;;;;;;22.51;65.43;98926.44;5096212;28;20207;-86
2023/05/27 06:44:55;;;;;;;4.97;2.47;;;;;;;22.49;63.98;98922.25;5096413;28;20208;-87
2023/05/27 06:47:21;;;;;;;8.47;2.80;;;;;;;22.48;64.90;98924.09;5097012;28;20199;-87
2023/05/27 06:49:46;;;;;;;5.40;2.10;;;;;;;22.51;64.72;98926.44;5096720;28;20678;-87
2023/05/27 06:52:12;;;;;;;3.50;2.00;;;;;;;22.56;63.80;98923.31;5097307;28;20206;-87
2023/05/27 06:54:37;;;;;;;5.00;2.60;;;;;;;22.60;64.29;98920.16;5096860;28;20677;-87
2023/05/27 06:57:03;;;;;;;3.20;1.90;;;;;;;22.61;64.43;98911.13;5110784;28;20190;-87
2023/05/27 06:59:29;;;;;;;4.73;2.20;;;;;;;22.72;64.41;98914.53;5116801;28;20168;-87
2023/05/27 07:01:56;;;;;;;5.17;2.20;;;;;;;22.80;64.97;98920.72;5117492;28;20606;-87
2023/05/27 07:04:21;;;;;;;5.63;2.27;;;;;;;22.91;64.49;98917.75;5115740;28;20207;-87
2023/05/27 07:06:47;;;;;;;4.07;2.40;;;;;;;23.04;63.35;98918.13;5116154;28;20272;-87
2023/05/27 07:09:13;;;;;;;3.93;2.27;;;;;;;23.13;64.25;98922.50;5116123;28;20164;-87
2023/05/27 07:11:39;;;;;;;6.57;2.50;;;;;;;23.16;64.63;98924.84;5116239;28;20321;-87
2023/05/27 07:14:05;;;;;;;6.40;2.23;;;;;;;23.20;64.40;98919.97;5116530;28;20207;-87
2023/05/27 07:16:30;;;;;;;5.00;2.23;;;;;;;23.34;61.68;98930.03;5116263;28;20179;-88
2023/05/27 07:18:56;;;;;;;5.07;1.77;;;;;;;23.41;60.47;98923.03;5117201;28;20299;-87
2023/05/27 07:21:21;;;;;;;3.80;1.90;;;;;;;23.47;59.60;98925.06;5116723;28;20180;-87
2023/05/27 07:23:47;;;;;;;3.63;1.90;;;;;;;23.36;60.91;98920.00;5116877;28;20183;-87
2023/05/27 07:26:12;;;;;;;4.60;2.27;;;;;;;23.41;60.99;98923.03;5117349;28;20705;-88
2023/05/27 07:28:38;;;;;;;3.30;1.77;;;;;;;23.50;61.39;98919.38;5117251;28;20171;-87
2023/05/27 07:31:04;;;;;;;5.83;2.70;;;;;;;23.60;62.22;98925.38;5116623;28;20182;-86
2023/05/27 07:33:30;;;;;;;6.57;2.90;;;;;;;23.65;60.88;98917.69;5115578;28;20506;-87
2023/05/27 07:35:55;;;;;;;4.77;2.33;;;;;;;23.67;60.74;98914.81;5115904;28;20632;-87
2023/05/27 07:38:21;;;;;;;4.00;2.50;;;;;;;23.48;61.65;98910.66;5115596;28;20326;-87
2023/05/27 07:40:46;;;;;;;4.30;2.60;;;;;;;23.45;61.81;98915.53;5115305;28;20756;-88
2023/05/27 07:43:12;;;;;;;4.70;2.07;;;;;;;23.48;61.75;98916.00;5115914;28;20168;-87
2023/05/27 07:45:38;;;;;;;3.40;1.70;;;;;;;23.56;60.95;98915.16;5116054;28;20199;-87
2023/05/27 07:48:03;;;;;;;3.53;1.80;;;;;;;23.49;62.49;98911.50;5116313;28;20187;-86
2023/05/27 07:50:28;;;;;;;3.27;1.97;;;;;;;23.48;62.31;98910.66;5116563;28;20272;-87
2023/05/27 07:52:54;;;;;;;3.27;2.07;;;;;;;23.53;61.75;98918.19;5116226;28;20207;-87
2023/05/27 07:55:19;;;;;;;5.10;1.90;;;;;;;23.52;61.77;98920.03;5116408;28;20192;-87
2023/05/27 07:57:45;;;;;;;4.00;2.20;;;;;;;23.52;62.46;98928.06;5116136;28;20240;-88
2023/05/27 08:00:11;;;;;;;3.67;1.90;;;;;;;23.54;63.25;98920.69;5116105;28;20179;-88
2023/05/27 08:02:36;;;;;;;3.90;2.40;;;;;;;23.51;64.14;98929.06;5116062;28;20656;-86
2023/05/27 08:05:03;;;;;;;3.00;2.00;;;;;;;23.59;63.23;98930.88;5116288;28;20172;-88
2023/05/27 08:07:30;;;;;;;3.40;2.30;;;;;;;23.61;63.37;98940.41;5115861;28;20195;-87
2023/05/27 08:09:55;;;;;;;3.73;1.97;;;;;;;23.57;63.62;98948.94;5115950;28;20233;-87
2023/05/27 08:12:21;;;;;;;5.07;2.50;;;;;;;23.51;64.38;98942.44;5116135;28;20175;-87
2023/05/27 08:14:46;;;;;;;4.27;2.53;;;;;;;23.55;64.77;98949.13;5115638;28;20285;-87
2023/05/27 08:17:12;;;;;;;4.17;2.53;;;;;;;23.45;64.94;98948.47;5116051;28;20218;-88
2023/05/27 08:19:37;;;;;;;5.87;2.80;;;;;;;23.38;65.77;98960.81;5115745;28;20172;-87
2023/05/27 08:22:03;;;;;;;5.77;3.30;;;;;;;23.28;65.55;98957.44;5116272;28;20197;-86
2023/05/27 08:24:32;;;;;;;6.10;3.10;;;;;;;23.30;65.32;98954.56;5115757;28;20538;-87
2023/05/27 08:26:57;;;;;;;3.83;2.67;;;;;;;23.31;65.04;98962.44;5115856;28;20610;-87
2023/05/27 08:29:27;;;;;;;3.97;2.77;;;;;;;23.24;64.87;98954.22;5115478;28;20240;-87
2023/05/27 08:31:53;;;;;;;6.47;2.83;;;;;;;23.30;65.69;98950.06;5115286;28;20209;-87
2023/05/27 08:34:18;;;;;;;8.07;2.83;;;;;;;23.36;64.96;98959.28;5115935;28;20199;-88
2023/05/27 08:36:44;;;;;;;6.00;2.87;;;;;;;23.30;64.53;98958.09;5115962;28;20179;-87
2023/05/27 08:39:09;;;;;;;6.27;2.43;;;;;;;23.31;64.84;98961.59;5115360;28;20175;-87
2023/05/27 08:41:36;;;;;;;3.67;1.83;;;;;;;23.38;63.39;98957.28;5115586;28;20168;-87
2023/05/27 08:44:02;;;;;;;4.27;2.07;;;;;;;23.38;64.05;98954.63;5099496;28;20176;-87
2023/05/27 08:46:28;;;;;;;5.23;2.67;;;;;;;23.39;62.60;98943.78;5094787;28;20177;-88
2023/05/27 08:48:55;;;;;;;5.23;2.40;;;;;;;23.29;63.47;98952.91;5094756;28;20631;-87
2023/05/27 08:51:21;;;;;;;4.30;1.90;;;;;;;23.33;63.85;98955.09;5094748;28;20180;-87
2023/05/27 08:53:47;;;;;;;6.80;2.30;;;;;;;23.44;63.74;98949.47;5104496;28;20199;-87
2023/05/27 08:56:18;;;;;;;3.57;2.10;;;;;;;23.46;64.12;98946.59;5115274;28;20518;-87
2023/05/27 08:58:44;;;;;;;3.07;1.70;;;;;;;23.41;62.74;98947.09;5115008;28;20246;-87
2023/05/27 09:01:10;;;;;;;4.97;1.80;;;;;;;23.40;62.29;98949.97;5114691;28;20241;-87
2023/05/27 09:03:36;;;;;;;3.63;2.00;;;;;;;23.33;62.25;98946.22;5114779;27;20606;-87
2023/05/27 09:06:04;;;;;;;3.53;1.90;;;;;;;23.36;62.39;98944.06;5114458;28;20191;-87
2023/05/27 09:08:30;;;;;;;4.57;2.00;;;;;;;23.50;63.24;98940.78;5115069;28;20203;-87
2023/05/27 09:10:55;;;;;;;4.03;2.20;;;;;;;23.56;61.30;98939.25;5104554;28;20206;-87
2023/05/27 09:13:31;;;;;;;3.00;1.63;;;;;;;23.53;60.73;98935.06;5094206;28;20180;-87
2023/05/27 09:16:04;;;;;;;3.40;1.70;;;;;;;23.45;60.23;98940.44;5093909;28;20237;-87
2023/05/27 09:18:32;;;;;;;4.63;2.33;;;;;;;23.41;61.01;98930.22;5094139;28;20313;-87
2023/05/27 09:20:57;;;;;;;3.40;1.83;;;;;;;23.46;60.44;98928.72;5094259;28;20176;-86
2023/05/27 09:23:23;;;;;;;3.47;1.87;;;;;;;23.49;61.62;98927.53;5094249;28;20261;-88
2023/05/27 09:25:50;;;;;;;4.77;1.73;;;;;;;23.49;61.67;98930.22;5094106;28;20714;-87
2023/05/27 09:28:26;;;;;;;2.60;1.53;;;;;;;23.63;60.51;98922.38;5098029;28;20186;-87
2023/05/27 09:31:06;;;;;;;5.13;2.40;;;;;;;23.71;61.72;98922.38;5114617;28;20186;-87
2023/05/27 09:33:33;;;;;;;4.47;2.00;;;;;;;23.61;62.21;98921.69;5113574;28;20187;-86
2023/05/27 09:36:08;;;;;;;5.20;2.30;;;;;;;23.64;61.51;98924.03;5114191;28;20179;-87
2023/05/27 09:38:35;;;;;;;3.83;2.30;;;;;;;23.75;62.36;98920.16;5114094;28;20650;-88
2023/05/27 09:41:02;;;;;;;5.93;2.17;;;;;;;23.84;62.04;98917.34;5114140;28;20642;-87
2023/05/27 09:43:29;;;;;;;10.17;2.67;;;;;;;23.87;62.82;98912.63;5114387;28;20179;-87
2023/05/27 09:46:00;;;;;;;4.20;2.37;;;;;;;23.95;63.52;98908.09;5114089;28;20172;-87
2023/05/27 09:48:26;;;;;;;5.37;2.97;;;;;;;23.91;63.56;98911.28;5113127;28;20180;-86
2023/05/27 09:50:54;;;;;;;4.30;2.10;;;;;;;23.94;62.33;98908.25;5112858;28;20536;-88
2023/05/27 09:53:23;;;;;;;8.87;2.47;;;;;;;24.08;62.89;98904.91;5113984;28;20175;-86
2023/05/27 09:55:49;;;;;;;4.67;2.50;;;;;;;24.05;61.56;98905.25;5113846;28;20633;-87
2023/05/27 09:58:16;;;;;;;5.50;2.50;;;;;;;24.07;62.69;98905.88;5113844;28;20179;-87
2023/05/27 10:00:45;;;;;;;5.17;2.43;;;;;;;24.19;63.41;98901.84;5113882;28;20685;-88
2023/05/27 10:03:12;;;;;;;5.37;2.13;;;;;;;24.24;62.60;98892.31;5113730;28;20211;-87
2023/05/27 10:05:37;;;;;;;3.70;2.13;;;;;;;24.27;63.08;98889.28;5114022;28;20176;-88
2023/05/27 10:08:03;;;;;;;3.37;1.93;;;;;;;24.40;62.51;98892.25;5113795;28;20179;-87
2023/05/27 10:10:29;;;;;;;3.63;2.23;;;;;;;24.55;61.59;98892.38;5113754;28;20176;-87
2023/05/27 10:12:57;;;;;;;4.83;2.60;;;;;;;24.55;61.56;98876.28;5114297;28;20176;-89
2023/05/27 10:15:28;;;;;;;4.20;2.40;;;;;;;24.51;60.10;98882.16;5112531;28;20203;-87
2023/05/27 10:17:56;;;;;;;4.50;2.90;;;;;;;24.46;58.42;98896.06;5113624;28;20218;-87
2023/05/27 10:20:29;;;;;;;5.63;2.17;;;;;;;24.52;59.02;98882.00;5112677;28;20264;-87
2023/05/27 10:22:56;;;;;;;4.20;2.17;;;;;;;24.54;60.23;98871.91;5113119;28;20186;-89
2023/05/27 10:25:22;;;;;;;3.00;1.63;;;;;;;24.62;57.20;98879.09;5097041;28;20212;-88
2023/05/27 10:27:49;;;;;;;3.87;2.10;;;;;;;24.68;57.90;98873.03;5102345;28;20199;-87
2023/05/27 10:30:15;;;;;;;5.40;2.27;;;;;;;24.82;58.39;98878.50;5113076;28;20179;-87
2023/05/27 10:32:48;;;;;;;4.13;2.20;;;;;;;24.88;57.33;98875.13;5112109;28;20175;-88
2023/05/27 10:35:15;;;;;;;4.17;2.07;;;;;;;25.00;58.16;98871.00;5113418;28;20283;-87
2023/05/27 10:37:42;;;;;;;5.13;1.80;;;;;;;25.16;58.90;98871.91;5111887;28;20218;-88
2023/05/27 10:40:08;;;;;;;6.00;2.20;;;;;;;25.05;57.21;98868.59;5113721;28;20229;-89
2023/05/27 10:42:33;;;;;;;3.93;2.03;;;;;;;25.05;58.73;98865.94;5113426;28;20172;-88
2023/05/27 10:45:10;;;;;;;5.33;1.93;;;;;;;25.23;57.40;98867.50;5113952;28;20232;-88
2023/05/27 10:47:36;;;;;;;5.90;2.93;;;;;;;25.34;56.98;98861.69;5113681;28;20155;-89
2023/05/27 10:50:14;;;;;;;3.70;1.90;;;;;;;25.55;56.40;98859.19;5112496;28;20189;-88
2023/05/27 10:52:41;;;;;;;4.60;2.40;;;;;;;25.53;55.85;98858.53;5113348;28;20175;-88
2023/05/27 10:55:07;;;;;;;4.20;2.33;;;;;;;25.36;55.70;98854.31;5113528;28;20766;-89
2023/05/27 10:57:33;;;;;;;4.53;2.30;;;;;;;25.16;56.17;98851.25;5112344;28;20605;-87
2023/05/27 11:00:08;;;;;;;3.93;2.30;;;;;;;25.28;58.17;98849.84;5113295;28;20653;-88
2023/05/27 11:02:36;;;;;;;4.57;2.40;;;;;;;25.18;57.72;98843.06;5113814;28;20168;-88
2023/05/27 11:05:08;;;;;;;4.87;2.73;;;;;;;25.02;56.92;98847.53;5112285;28;20179;-90
2023/05/27 11:07:38;;;;;;;4.10;1.90;;;;;;;25.31;59.77;98843.28;5113123;28;20179;-88
2023/05/27 11:10:05;;;;;;;6.47;2.53;;;;;;;25.49;58.67;98833.06;5113146;28;20190;-89
2023/05/27 11:12:31;;;;;;;4.73;2.23;;;;;;;25.71;56.36;98845.59;5113679;28;20228;-88
2023/05/27 11:14:56;;;;;;;6.40;1.67;;;;;;;25.63;55.39;98837.63;5112172;28;20286;-89
2023/05/27 11:17:23;;;;;;;3.20;1.73;;;;;;;25.81;55.09;98835.44;5114659;28;20172;-89
2023/05/27 11:19:49;;;;;;;3.30;1.70;;;;;;;25.87;53.40;98834.69;5116916;28;20172;-89
2023/05/27 11:22:19;;;;;;;5.50;1.97;;;;;;;26.12;54.10;98828.06;5116249;28;20175;-89
2023/05/27 11:25:02;;;;;;;4.00;1.97;;;;;;;26.09;52.08;98827.56;5116905;28;20230;-91
2023/05/27 11:27:36;;;;;;;5.40;2.03;;;;;;;26.16;52.84;98821.28;5116238;28;20658;-90
2023/05/27 11:30:09;;;;;;;3.40;1.60;;;;;;;25.65;50.52;98823.00;5116212;28;20179;-92
2023/05/27 11:32:39;;;;;;;3.80;2.00;;;;;;;25.76;51.50;98820.91;5117302;28;20176;-90
2023/05/27 11:35:15;;;;;;;2.93;1.50;;;;;;;26.03;53.04;98812.16;5115589;28;20203;-90
2023/05/27 11:37:53;;;;;;;3.23;1.50;;;;;;;26.44;52.13;98815.22;5117369;28;20675;-88